KPRX/PRX METAR and TAF weather

Enter ICAO airport designator
Station Type Date Time Source
KPRX METAR 2019/06/27 08:20 UTC NOAA

KPRX 270820Z AUTO 13005KT 3/4SM BR CLR 21/19 A3016 RMK AO2


Station Type Date Time Source
KPRX Decoded METAR 2019/06/27 08:20 UTC NOAA

Paris / Cox Field, TX, United States (KPRX) 33-38N 095-27W
Jun 27, 2019 - 04:20 AM EDT / 2019.06.27 0820 UTC
Wind: from the SE (130 degrees) at 6 MPH (5 KT):0
Visibility: 3/4 mile(s):0
Sky conditions: clear
Weather: mist
Temperature: 69 F (21 C)
Dew Point: 66 F (19 C)
Relative Humidity: 88%
Pressure (altimeter): 30.16 in. Hg (1021 hPa)
ob: KPRX 270820Z AUTO 13005KT 3/4SM BR CLR 21/19 A3016 RMK AO2
cycle: 8

Station Type Date Time Source
KPRX TAF UTC NOAA

Error!

Example: see airport list